createdAt,value
2023-01-08T00:07:42.698Z,29.83
2023-01-08T00:17:46.639Z,26.17
2023-01-08T00:27:55.373Z,30.63
2023-01-08T00:38:04.698Z,28.53
2023-01-08T00:48:14.454Z,32.43
2023-01-08T00:58:24.359Z,26.10
2023-01-08T01:08:28.031Z,27.80
2023-01-08T01:18:35.545Z,27.47
2023-01-08T01:28:45.915Z,26.40
2023-01-08T01:38:49.901Z,25.10
2023-01-08T01:48:55.565Z,17.67
2023-01-08T01:58:58.301Z,31.83
2023-01-08T02:09:06.519Z,26.20
2023-01-08T02:19:23.153Z,24.93
2023-01-08T02:29:29.540Z,22.63
2023-01-08T02:40:08.069Z,22.37
2023-01-08T02:50:34.036Z,19.33
2023-01-08T03:00:38.665Z,16.17
2023-01-08T03:10:43.595Z,17.00
2023-01-08T03:20:48.704Z,14.87
2023-01-08T03:30:53.884Z,13.87
2023-01-08T03:41:06.291Z,11.13
2023-01-08T03:51:12.615Z,14.40
2023-01-08T04:01:19.297Z,15.27
2023-01-08T04:11:26.815Z,13.53
2023-01-08T04:21:33.637Z,16.20
2023-01-08T04:31:35.833Z,11.17
2023-01-08T04:41:43.379Z,13.07
2023-01-08T04:51:49.147Z,12.77
2023-01-08T05:01:51.575Z,15.43
2023-01-08T05:11:56.242Z,12.60
2023-01-08T05:21:58.695Z,10.37
2023-01-08T05:32:06.951Z,9.23
2023-01-08T05:42:16.633Z,9.10
2023-01-08T05:52:22.813Z,9.00
2023-01-08T06:02:34.363Z,9.50
2023-01-08T06:12:39.797Z,9.23
2023-01-08T06:22:44.226Z,13.57
2023-01-08T06:32:49.109Z,9.70
2023-01-08T06:42:53.549Z,7.53
2023-01-08T06:52:57.817Z,10.63
2023-01-08T07:03:01.889Z,6.53
2023-01-08T07:13:12.013Z,10.63
2023-01-08T07:23:17.303Z,9.00
2023-01-08T07:33:22.175Z,11.07
2023-01-08T07:43:30.198Z,11.40
2023-01-08T07:53:45.629Z,10.67
2023-01-08T08:03:55.131Z,10.73
2023-01-08T08:13:57.329Z,9.67
2023-01-08T08:23:59.689Z,9.60
2023-01-08T08:34:02.332Z,12.90
2023-01-08T08:44:05.534Z,11.33
2023-01-08T08:54:12.835Z,12.27
2023-01-08T09:04:16.317Z,9.17
2023-01-08T09:14:23.463Z,10.73
2023-01-08T09:24:35.203Z,11.53
2023-01-08T09:34:39.838Z,12.00
2023-01-08T09:44:46.255Z,12.03
2023-01-08T09:54:55.069Z,9.17
2023-01-08T10:05:05.042Z,9.83
2023-01-08T10:15:11.353Z,11.83
2023-01-08T10:25:26.271Z,11.27
2023-01-08T10:35:38.114Z,11.63
2023-01-08T10:45:47.707Z,10.27
2023-01-08T10:56:01.103Z,10.83
2023-01-08T11:06:14.849Z,15.73
2023-01-08T11:16:24.054Z,12.00
2023-01-08T11:26:32.010Z,16.03
2023-01-08T11:36:37.517Z,14.20
2023-01-08T11:46:57.571Z,15.47
2023-01-08T11:57:34.435Z,15.10
2023-01-08T12:08:23.209Z,18.27
2023-01-08T12:19:03.777Z,18.93
2023-01-08T12:29:06.938Z,15.33
2023-01-08T12:39:21.481Z,11.33
2023-01-08T12:49:40.939Z,16.30
2023-01-08T13:00:52.040Z,14.63
2023-01-08T13:10:57.918Z,9.37
2023-01-08T13:21:07.585Z,13.60
2023-01-08T13:31:23.357Z,18.33
2023-01-08T13:41:36.525Z,10.13
2023-01-08T13:51:42.308Z,15.67
2023-01-08T14:01:57.838Z,19.50
2023-01-08T14:12:01.538Z,20.50
2023-01-08T14:22:09.358Z,18.53
2023-01-08T14:32:21.599Z,19.43
2023-01-08T14:42:50.368Z,19.67
2023-01-08T14:53:08.307Z,18.03
2023-01-08T15:03:41.378Z,19.87
2023-01-08T15:13:44.836Z,22.07
2023-01-08T15:23:56.793Z,16.60
2023-01-08T15:34:03.908Z,19.03
2023-01-08T15:44:17.058Z,21.37
2023-01-08T15:54:34.462Z,17.67
2023-01-08T16:04:38.984Z,18.17
2023-01-08T16:14:49.288Z,20.13
2023-01-08T16:24:52.305Z,20.93
2023-01-08T16:35:02.834Z,20.80
2023-01-08T16:45:08.770Z,20.80
2023-01-08T16:55:15.550Z,21.53
2023-01-08T17:05:23.320Z,20.13
2023-01-08T17:15:26.062Z,20.13
2023-01-08T17:25:29.917Z,19.00
2023-01-08T17:35:40.015Z,21.43
2023-01-08T17:45:43.184Z,18.03
2023-01-08T17:55:57.446Z,18.40
2023-01-08T18:06:20.756Z,21.03
2023-01-08T18:16:36.172Z,22.83
2023-01-08T18:26:38.923Z,16.07
2023-01-08T18:36:50.276Z,15.73
2023-01-08T18:46:54.309Z,17.93
2023-01-08T18:56:58.093Z,17.43
2023-01-08T19:07:01.856Z,18.57
2023-01-08T19:17:04.104Z,22.53
2023-01-08T19:27:06.312Z,19.87
2023-01-08T19:37:15.135Z,19.23
2023-01-08T19:47:17.184Z,17.50
2023-01-08T19:57:19.241Z,19.17
2023-01-08T20:07:26.033Z,18.03
2023-01-08T20:17:30.886Z,21.50
2023-01-08T20:27:35.404Z,22.23
2023-01-08T20:37:39.795Z,23.10
2023-01-08T20:47:42.597Z,25.77
2023-01-08T20:57:44.675Z,23.03
2023-01-08T21:07:49.354Z,18.80
2023-01-08T21:17:51.756Z,23.00
2023-01-08T21:27:56.136Z,25.67
2023-01-08T21:38:00.516Z,21.53
2023-01-08T21:48:02.825Z,26.47
2023-01-08T21:58:09.626Z,24.43
2023-01-08T22:08:18.555Z,24.03
2023-01-08T22:18:20.774Z,24.80
2023-01-08T22:28:27.182Z,30.50
2023-01-08T22:38:29.389Z,24.40
2023-01-08T22:48:33.805Z,22.73
2023-01-08T22:58:35.986Z,19.70
2023-01-08T23:08:38.781Z,24.43
2023-01-08T23:18:44.045Z,27.50
2023-01-08T23:28:52.545Z,31.70
2023-01-08T23:38:58.064Z,27.33
2023-01-08T23:49:00.250Z,27.40
2023-01-08T23:59:04.646Z,19.87
